Lennon, MI

11:55 AM EST on December 06, 2016 (GMT -0500)
Brookston Vineyards | | Change Station

Elev 755 ft 43.01 °N, 83.95 °W | Updated 48 seconds ago

Overcast
Overcast
32.0 °F
Feels Like 25 °F
N
8.3
Wind Variable Wind from ENE
Gusts 8.3 mph

Today
High -- | Low -- °F
--% Chance of Precip.
Yesterday
High -- | Low -- °F
Precip. -- in
Pressure 29.80 in
Visibility 10.0 miles
Clouds Few 1700 ft
Overcast 11000 ft
Windchill 25 °F
Dew Point Not available.
Humidity Not available.
Rainfall in
Snow Depth Not available.
7:53 AM 5:01 PM
Waxing Crescent, 43% visible
METAR KFNT 061653Z 11013KT 10SM FEW017 OVC110 03/01 A2977 RMK AO2 SLP090 T00330011
Pressure 29.80 in
Visibility 10.0 miles
Clouds Few 1700 ft
Overcast 11000 ft
Windchill 25 °F
Dew Point Not available.
Humidity Not available.
Rainfall in
Snow Depth Not available.
7:53 AM 5:01 PM
Waxing Crescent, 43% visible
METAR KFNT 061653Z 11013KT 10SM FEW017 OVC110 03/01 A2977 RMK AO2 SLP090 T00330011

10-Day Weather Forecast

Almanac

Astronomy

Dec. 06, 2016 Rise Set
Actual Time
Civil Twilight
Nautical Twilight
Astronomical Twilight
Moon
Length of Visible Light
Length of Day
Tomorrow will be .
, % of the Moon is Illuminated

Today's Extremes

State Highs State Lows

Community

WunderPhotos

Upload Photos

1,955,983 photos uploaded!

WunderBlog® & News

Nearby

Air Quality

  Air Quality AQ Index Pollutant
Not available.

Snow Depth

Station Depth Elevation

Earthquake Activity

City Distance Mag. Time & Date
Minimum magnitude displayed is 2.5.

Coastal Water Temperatures

Place Temperature

Stations

Nearby Weather Stations

Station Location Temp. Windchill Dew Point Humidity Wind Precip. Elev Updated Type
                   

Watches & Warnings

There are currently no watches in effect.